createdAt,value
2022-12-24T00:00:57.765Z,-0.20
2022-12-24T00:03:29.640Z,-0.20
2022-12-24T00:06:08.534Z,-0.30
2022-12-24T00:08:41.512Z,-0.30
2022-12-24T00:11:13.644Z,-0.20
2022-12-24T00:13:45.440Z,-0.20
2022-12-24T00:16:17.751Z,-0.20
2022-12-24T00:18:49.576Z,-0.10
2022-12-24T00:21:21.395Z,-0.20
2022-12-24T00:23:53.189Z,-0.20
2022-12-24T00:26:24.976Z,-0.20
2022-12-24T00:28:56.731Z,-0.20
2022-12-24T00:31:28.590Z,-0.20
2022-12-24T00:34:02.628Z,-0.30
2022-12-24T00:36:34.473Z,-0.30
2022-12-24T00:39:08.736Z,-0.40
2022-12-24T00:41:40.566Z,-0.40
2022-12-24T00:44:12.427Z,-0.50
2022-12-24T00:46:44.356Z,-0.50
2022-12-24T00:49:18.502Z,-0.50
2022-12-24T00:51:52.846Z,-0.50
2022-12-24T00:54:27.064Z,-0.50
2022-12-24T00:56:58.919Z,-0.50
2022-12-24T00:59:30.663Z,-0.50
2022-12-24T01:02:02.631Z,-0.50
2022-12-24T01:04:53.252Z,-0.50
2022-12-24T01:07:25.119Z,-0.50
2022-12-24T01:09:59.101Z,-0.50
2022-12-24T01:12:33.304Z,-0.50
2022-12-24T01:15:05.427Z,-0.50
2022-12-24T01:17:37.477Z,-0.50
2022-12-24T01:20:11.412Z,-0.50
2022-12-24T01:22:43.338Z,-0.40
2022-12-24T01:25:15.474Z,-0.40
2022-12-24T01:27:47.255Z,-0.30
2022-12-24T01:30:19.071Z,-0.30
2022-12-24T01:32:50.873Z,-0.30
2022-12-24T01:35:22.650Z,-0.20
2022-12-24T01:37:54.514Z,-0.30
2022-12-24T01:40:45.277Z,-0.30
2022-12-24T01:43:23.875Z,-0.30
2022-12-24T01:45:56.763Z,-0.30
2022-12-24T01:48:34.214Z,-0.40
2022-12-24T01:51:08.736Z,-0.40
2022-12-24T01:53:41.703Z,-0.30
2022-12-24T01:56:13.578Z,-0.30
2022-12-24T01:58:48.473Z,-0.20
2022-12-24T02:01:20.353Z,-0.20
2022-12-24T02:03:52.420Z,-0.20
2022-12-24T02:06:24.455Z,-0.20
2022-12-24T02:08:58.808Z,-0.20
2022-12-24T02:11:30.829Z,-0.20
2022-12-24T02:14:02.883Z,-0.10
2022-12-24T02:16:43.883Z,-0.10
2022-12-24T02:19:33.490Z,0.00
2022-12-24T02:22:25.454Z,0.00
2022-12-24T02:25:18.392Z,0.10
2022-12-24T02:27:59.253Z,0.10
2022-12-24T02:30:37.440Z,0.10
2022-12-24T02:33:17.480Z,0.20
2022-12-24T02:36:04.425Z,0.20
2022-12-24T02:38:42.849Z,0.20
2022-12-24T02:41:23.541Z,0.30
2022-12-24T02:43:57.517Z,0.30
2022-12-24T02:46:30.507Z,0.30
2022-12-24T02:49:02.526Z,0.40
2022-12-24T02:51:36.871Z,0.40
2022-12-24T02:54:11.028Z,0.40
2022-12-24T02:57:01.506Z,0.40
2022-12-24T02:59:48.582Z,0.40
2022-12-24T03:02:23.282Z,0.50
2022-12-24T03:05:07.356Z,0.50
2022-12-24T03:07:44.605Z,0.50
2022-12-24T03:10:18.259Z,0.50
2022-12-24T03:12:52.271Z,0.50
2022-12-24T03:15:25.861Z,0.50
2022-12-24T03:18:00.175Z,0.50
2022-12-24T03:20:55.299Z,0.40
2022-12-24T03:23:27.193Z,0.40
2022-12-24T03:26:00.150Z,0.40
2022-12-24T03:28:32.299Z,0.30
2022-12-24T03:31:05.350Z,0.30
2022-12-24T03:33:37.664Z,0.30
2022-12-24T03:36:09.806Z,0.30
2022-12-24T03:38:41.664Z,0.30
2022-12-24T03:41:13.426Z,0.40
2022-12-24T03:43:45.222Z,0.40
2022-12-24T03:46:17.164Z,0.30
2022-12-24T03:48:49.021Z,0.30
2022-12-24T03:51:22.355Z,0.20
2022-12-24T03:53:57.278Z,0.10
2022-12-24T03:56:29.130Z,0.00
2022-12-24T03:59:00.938Z,-0.10
2022-12-24T04:01:32.864Z,-0.20
2022-12-24T04:04:04.736Z,-0.30
2022-12-24T04:06:36.477Z,-0.40
2022-12-24T04:09:08.320Z,-0.50
2022-12-24T04:11:44.957Z,-0.60
2022-12-24T04:14:16.814Z,-0.60
2022-12-24T04:16:48.643Z,-0.70
2022-12-24T04:19:20.477Z,-0.80
2022-12-24T04:21:52.283Z,-0.80
2022-12-24T04:24:24.167Z,-0.80
2022-12-24T04:26:55.911Z,-0.80
2022-12-24T04:29:27.761Z,-0.90
2022-12-24T04:31:59.649Z,-0.80
2022-12-24T04:34:31.526Z,-0.80
2022-12-24T04:37:08.153Z,-0.80
2022-12-24T04:39:42.049Z,-0.70
2022-12-24T04:42:13.811Z,-0.60
2022-12-24T04:44:45.642Z,-0.50
2022-12-24T04:47:17.471Z,-0.50
2022-12-24T04:49:50.638Z,-0.40
2022-12-24T04:52:22.420Z,-0.40
2022-12-24T04:54:56.535Z,-0.30
2022-12-24T04:57:28.350Z,-0.30
2022-12-24T05:00:00.156Z,-0.30
2022-12-24T05:02:32.056Z,-0.20
2022-12-24T05:05:04.072Z,-0.20
2022-12-24T05:07:38.320Z,-0.20
2022-12-24T05:10:11.157Z,-0.20
2022-12-24T05:12:42.964Z,-0.20
2022-12-24T05:15:14.867Z,-0.30
2022-12-24T05:17:48.819Z,-0.30
2022-12-24T05:20:23.070Z,-0.40
2022-12-24T05:23:13.752Z,-0.40
2022-12-24T05:26:04.272Z,-0.30
2022-12-24T05:28:36.019Z,-0.40
2022-12-24T05:31:07.853Z,-0.30
2022-12-24T05:33:39.638Z,-0.40
2022-12-24T05:36:14.203Z,-0.40
2022-12-24T05:38:45.963Z,-0.40
2022-12-24T05:41:20.024Z,-0.50
2022-12-24T05:43:52.160Z,-0.50
2022-12-24T05:46:24.892Z,-0.50
2022-12-24T05:48:56.673Z,-0.50
2022-12-24T05:51:31.033Z,-0.60
2022-12-24T05:54:02.834Z,-0.70
2022-12-24T05:56:34.626Z,-0.70
2022-12-24T05:59:06.400Z,-0.80
2022-12-24T06:01:38.331Z,-0.90
2022-12-24T06:04:10.235Z,-0.90
2022-12-24T06:06:42.047Z,-1.00
2022-12-24T06:09:13.816Z,-1.00
2022-12-24T06:11:45.765Z,-1.10
2022-12-24T06:14:17.508Z,-1.10
2022-12-24T06:16:49.280Z,-1.20
2022-12-24T06:19:21.167Z,-1.20
2022-12-24T06:21:53.041Z,-1.30
2022-12-24T06:24:24.921Z,-1.30
2022-12-24T06:26:56.756Z,-1.30
2022-12-24T06:29:28.530Z,-1.30
2022-12-24T06:32:02.702Z,-1.30
2022-12-24T06:34:34.515Z,-1.40
2022-12-24T06:37:06.305Z,-1.40
2022-12-24T06:39:38.057Z,-1.40
2022-12-24T06:42:09.870Z,-1.40
2022-12-24T06:44:41.673Z,-1.40
2022-12-24T06:47:13.483Z,-1.40
2022-12-24T06:49:45.245Z,-1.40
2022-12-24T06:52:17.044Z,-1.40
2022-12-24T06:54:48.791Z,-1.40
2022-12-24T06:57:20.622Z,-1.40
2022-12-24T06:59:54.567Z,-1.30
2022-12-24T07:02:26.479Z,-1.20
2022-12-24T07:04:58.315Z,-1.10
2022-12-24T07:07:30.123Z,-1.00
2022-12-24T07:10:01.912Z,-0.90
2022-12-24T07:12:35.942Z,-0.90
2022-12-24T07:15:11.119Z,-0.80
2022-12-24T07:17:43.427Z,-0.70
2022-12-24T07:20:20.230Z,-0.60
2022-12-24T07:22:52.082Z,-0.50
2022-12-24T07:25:23.920Z,-0.40
2022-12-24T07:28:00.731Z,-0.40
2022-12-24T07:30:34.832Z,-0.40
2022-12-24T07:33:08.875Z,-0.40
2022-12-24T07:35:40.645Z,-0.40
2022-12-24T07:38:12.444Z,-0.40
2022-12-24T07:40:46.299Z,-0.40
2022-12-24T07:43:18.098Z,-0.40
2022-12-24T07:45:50.283Z,-0.40
2022-12-24T07:48:22.098Z,-0.30
2022-12-24T07:50:56.283Z,-0.10
2022-12-24T07:53:28.680Z,-0.10
2022-12-24T07:56:00.426Z,0.10
2022-12-24T07:58:32.228Z,0.20
2022-12-24T08:01:04.062Z,0.30
2022-12-24T08:03:36.046Z,0.30
2022-12-24T08:06:08.113Z,0.40
2022-12-24T08:08:39.941Z,0.50
2022-12-24T08:11:12.203Z,0.50
2022-12-24T08:13:44.009Z,0.50
2022-12-24T08:16:15.840Z,0.60
2022-12-24T08:18:47.680Z,0.60
2022-12-24T08:21:20.463Z,0.70
2022-12-24T08:23:52.301Z,0.80
2022-12-24T08:26:24.092Z,0.90
2022-12-24T08:28:55.926Z,1.00
2022-12-24T08:31:27.755Z,1.10
2022-12-24T08:33:59.677Z,1.20
2022-12-24T08:36:31.630Z,1.30
2022-12-24T08:39:03.838Z,1.30
2022-12-24T08:41:35.928Z,1.40
2022-12-24T08:44:07.724Z,1.40
2022-12-24T08:46:39.544Z,1.50
2022-12-24T08:49:11.398Z,1.50
2022-12-24T08:51:43.158Z,1.60
2022-12-24T08:54:17.169Z,1.60
2022-12-24T08:56:51.268Z,1.60
2022-12-24T08:59:25.194Z,1.70
2022-12-24T09:01:57.149Z,1.70
2022-12-24T09:04:31.403Z,1.80
2022-12-24T09:07:03.153Z,1.90
2022-12-24T09:09:38.033Z,1.90
2022-12-24T09:12:10.244Z,1.90
2022-12-24T09:14:42.073Z,1.90
2022-12-24T09:17:13.851Z,2.00
2022-12-24T09:19:46.194Z,2.10
2022-12-24T09:22:17.965Z,2.10
2022-12-24T09:24:49.815Z,2.20
2022-12-24T09:27:21.614Z,2.20
2022-12-24T09:29:53.407Z,2.30
2022-12-24T09:32:27.640Z,2.30
2022-12-24T09:34:59.488Z,2.40
2022-12-24T09:37:31.270Z,2.40
2022-12-24T09:40:03.137Z,2.40
2022-12-24T09:42:51.216Z,2.50
2022-12-24T09:45:26.920Z,2.50
2022-12-24T09:48:03.992Z,2.50
2022-12-24T09:50:46.212Z,2.60
2022-12-24T09:53:20.631Z,2.60
2022-12-24T09:55:54.639Z,2.70
2022-12-24T09:58:37.745Z,2.70
2022-12-24T10:01:13.191Z,2.70
2022-12-24T10:03:45.902Z,2.70
2022-12-24T10:06:18.593Z,2.70
2022-12-24T10:08:52.742Z,2.70
2022-12-24T10:11:44.390Z,2.70
2022-12-24T10:14:22.588Z,2.70
2022-12-24T10:17:15.805Z,2.80
2022-12-24T10:19:47.696Z,2.80
2022-12-24T10:22:42.280Z,2.80
2022-12-24T10:25:23.233Z,2.80
2022-12-24T10:27:57.832Z,2.80
2022-12-24T10:30:30.068Z,2.90
2022-12-24T10:33:02.201Z,2.90
2022-12-24T10:35:40.641Z,3.00
2022-12-24T10:38:12.502Z,3.00
2022-12-24T10:40:48.380Z,3.00
2022-12-24T10:43:21.661Z,3.10
2022-12-24T10:45:56.043Z,3.10
2022-12-24T10:48:30.484Z,3.10
2022-12-24T10:51:07.795Z,3.10
2022-12-24T10:54:06.807Z,3.20
2022-12-24T10:56:46.434Z,3.20
2022-12-24T10:59:31.954Z,3.20
2022-12-24T11:02:03.959Z,3.30
2022-12-24T11:04:45.924Z,3.30
2022-12-24T11:07:20.076Z,3.30
2022-12-24T11:09:56.151Z,3.30
2022-12-24T11:12:30.199Z,3.30
2022-12-24T11:15:04.469Z,3.40
2022-12-24T11:17:38.495Z,3.50
2022-12-24T11:20:20.318Z,3.60
2022-12-24T11:22:52.178Z,3.70
2022-12-24T11:25:27.839Z,3.60
2022-12-24T11:28:12.821Z,3.50
2022-12-24T11:30:55.249Z,3.40
2022-12-24T11:33:27.210Z,3.30
2022-12-24T11:36:04.173Z,3.20
2022-12-24T11:38:36.311Z,3.20
2022-12-24T11:41:12.857Z,3.10
2022-12-24T11:43:46.237Z,3.10
2022-12-24T11:46:22.047Z,3.10
2022-12-24T11:49:08.164Z,3.10
2022-12-24T11:51:46.302Z,3.10
2022-12-24T11:54:24.235Z,3.00
2022-12-24T11:56:57.324Z,3.00
2022-12-24T11:59:32.116Z,3.00
2022-12-24T12:02:13.166Z,2.90
2022-12-24T12:04:46.664Z,2.80
2022-12-24T12:07:20.744Z,2.80
2022-12-24T12:10:12.860Z,2.70
2022-12-24T12:12:46.629Z,2.70
2022-12-24T12:15:41.639Z,2.80
2022-12-24T12:18:15.739Z,2.70
2022-12-24T12:21:02.215Z,2.70
2022-12-24T12:23:36.013Z,2.70
2022-12-24T12:26:12.982Z,2.70
2022-12-24T12:28:47.340Z,2.60
2022-12-24T12:31:28.140Z,2.60
2022-12-24T12:34:12.110Z,2.60
2022-12-24T12:36:47.210Z,2.60
2022-12-24T12:39:22.174Z,2.60
2022-12-24T12:42:11.840Z,2.60
2022-12-24T12:45:02.574Z,2.70
2022-12-24T12:48:06.113Z,2.70
2022-12-24T12:50:37.868Z,2.70
2022-12-24T12:53:12.774Z,2.70
2022-12-24T12:55:44.537Z,2.70
2022-12-24T12:58:36.574Z,2.60
2022-12-24T13:01:14.437Z,2.60
2022-12-24T13:03:57.901Z,2.60
2022-12-24T13:06:32.651Z,2.50
2022-12-24T13:09:12.712Z,2.40
2022-12-24T13:11:47.239Z,2.40
2022-12-24T13:14:37.220Z,2.30
2022-12-24T13:17:22.440Z,2.20
2022-12-24T13:20:12.175Z,2.20
2022-12-24T13:23:10.435Z,2.10
2022-12-24T13:25:43.893Z,2.10
2022-12-24T13:28:15.683Z,2.00
2022-12-24T13:30:51.406Z,1.90
2022-12-24T13:33:35.538Z,1.80
2022-12-24T13:36:11.209Z,1.80
2022-12-24T13:38:48.927Z,1.70
2022-12-24T13:41:41.278Z,1.60
2022-12-24T13:44:13.740Z,1.50
2022-12-24T13:46:56.661Z,1.50
2022-12-24T13:49:28.420Z,1.40
2022-12-24T13:52:12.343Z,1.30
2022-12-24T13:54:50.130Z,1.30
2022-12-24T13:57:21.958Z,1.20
2022-12-24T14:00:02.228Z,1.20
2022-12-24T14:02:36.106Z,1.20
2022-12-24T14:05:21.413Z,1.10
2022-12-24T14:07:55.382Z,1.10
2022-12-24T14:10:30.133Z,1.10
2022-12-24T14:13:02.030Z,1.10
2022-12-24T14:15:49.222Z,1.00
2022-12-24T14:18:23.145Z,1.00
2022-12-24T14:20:56.911Z,1.00
2022-12-24T14:23:33.736Z,1.00
2022-12-24T14:26:11.003Z,0.90
2022-12-24T14:29:11.455Z,0.90
2022-12-24T14:31:56.019Z,0.80
2022-12-24T14:34:27.944Z,0.80
2022-12-24T14:37:03.082Z,0.80
2022-12-24T14:39:36.167Z,0.70
2022-12-24T14:42:26.277Z,0.70
2022-12-24T14:45:16.785Z,0.70
2022-12-24T14:48:06.975Z,0.60
2022-12-24T14:50:57.108Z,0.60
2022-12-24T14:53:28.907Z,0.60
2022-12-24T14:56:09.126Z,0.60
2022-12-24T14:58:43.251Z,0.50
2022-12-24T15:01:23.257Z,0.50
2022-12-24T15:04:10.612Z,0.50
2022-12-24T15:06:53.329Z,0.50
2022-12-24T15:09:27.043Z,0.40
2022-12-24T15:12:00.230Z,0.40
2022-12-24T15:14:35.668Z,0.40
2022-12-24T15:17:08.179Z,0.30
2022-12-24T15:19:42.584Z,0.30
2022-12-24T15:22:22.638Z,0.30
2022-12-24T15:24:54.667Z,0.30
2022-12-24T15:27:32.302Z,0.30
2022-12-24T15:30:08.757Z,0.20
2022-12-24T15:32:40.560Z,0.20
2022-12-24T15:35:30.670Z,0.10
2022-12-24T15:38:06.569Z,0.10
2022-12-24T15:40:38.461Z,0.10
2022-12-24T15:43:12.661Z,0.20
2022-12-24T15:45:46.035Z,0.20
2022-12-24T15:48:21.302Z,0.20
2022-12-24T15:50:54.968Z,0.20
2022-12-24T15:53:32.262Z,0.20
2022-12-24T15:56:07.176Z,0.20
2022-12-24T15:58:40.714Z,0.20
2022-12-24T16:01:15.757Z,0.20
2022-12-24T16:03:50.847Z,0.30
2022-12-24T16:06:23.199Z,0.30
2022-12-24T16:08:56.757Z,0.30
2022-12-24T16:11:35.406Z,0.30
2022-12-24T16:14:12.257Z,0.30
2022-12-24T16:16:48.945Z,0.30
2022-12-24T16:19:23.719Z,0.20
2022-12-24T16:21:59.591Z,0.20
2022-12-24T16:24:31.690Z,0.20
2022-12-24T16:27:10.637Z,0.20
2022-12-24T16:29:47.053Z,0.20
2022-12-24T16:32:38.138Z,0.20
2022-12-24T16:35:19.111Z,0.20
2022-12-24T16:37:50.918Z,0.30
2022-12-24T16:40:27.384Z,0.30
2022-12-24T16:43:18.718Z,0.30
2022-12-24T16:45:50.777Z,0.20
2022-12-24T16:48:23.690Z,0.20
2022-12-24T16:50:56.103Z,0.20
2022-12-24T16:53:27.938Z,0.20
2022-12-24T16:55:59.795Z,0.10
2022-12-24T16:58:31.663Z,0.10
2022-12-24T17:01:07.877Z,0.10
2022-12-24T17:03:40.457Z,0.10
2022-12-24T17:06:12.380Z,0.20
2022-12-24T17:08:48.030Z,0.20
2022-12-24T17:11:22.212Z,0.10
2022-12-24T17:13:53.976Z,0.10
2022-12-24T17:16:28.234Z,0.10
2022-12-24T17:19:00.049Z,0.10
2022-12-24T17:21:34.886Z,0.20
2022-12-24T17:24:07.184Z,0.20
2022-12-24T17:26:39.020Z,0.10
2022-12-24T17:29:15.456Z,0.20
2022-12-24T17:31:49.479Z,0.20
2022-12-24T17:34:21.282Z,0.10
2022-12-24T17:36:53.205Z,0.10
2022-12-24T17:39:27.888Z,0.10
2022-12-24T17:42:00.167Z,0.10
2022-12-24T17:44:34.484Z,0.00
2022-12-24T17:47:06.522Z,0.00
2022-12-24T17:49:40.724Z,0.00
2022-12-24T17:52:12.698Z,0.00
2022-12-24T17:54:44.618Z,0.00
2022-12-24T17:57:18.835Z,0.00
2022-12-24T17:59:50.747Z,-0.10
2022-12-24T18:02:22.715Z,-0.20
2022-12-24T18:04:54.657Z,-0.20
2022-12-24T18:07:26.518Z,-0.20
2022-12-24T18:10:00.607Z,-0.20
2022-12-24T18:12:32.600Z,-0.20
2022-12-24T18:15:05.584Z,-0.20
2022-12-24T18:17:37.542Z,-0.20
2022-12-24T18:20:09.536Z,-0.20
2022-12-24T18:22:41.363Z,-0.20
2022-12-24T18:25:13.290Z,-0.20
2022-12-24T18:27:45.090Z,-0.20
2022-12-24T18:30:22.915Z,-0.20
2022-12-24T18:32:57.779Z,-0.10
2022-12-24T18:35:29.625Z,-0.10
2022-12-24T18:38:01.483Z,-0.10
2022-12-24T18:40:36.117Z,-0.10
2022-12-24T18:43:10.379Z,-0.10
2022-12-24T18:45:42.955Z,-0.10
2022-12-24T18:48:14.765Z,-0.10
2022-12-24T18:50:54.048Z,-0.10
2022-12-24T18:53:28.094Z,-0.10
2022-12-24T18:56:07.162Z,0.00
2022-12-24T18:58:41.090Z,0.00
2022-12-24T19:01:14.391Z,-0.10
2022-12-24T19:03:47.493Z,0.00
2022-12-24T19:06:22.049Z,-0.10
2022-12-24T19:08:58.427Z,-0.10
2022-12-24T19:11:32.804Z,-0.10
2022-12-24T19:14:08.938Z,-0.10
2022-12-24T19:16:40.895Z,-0.10
2022-12-24T19:19:15.212Z,-0.10
2022-12-24T19:21:46.969Z,-0.10
2022-12-24T19:24:18.815Z,-0.10
2022-12-24T19:26:50.623Z,-0.10
2022-12-24T19:29:24.808Z,-0.10
2022-12-24T19:31:56.603Z,-0.10
2022-12-24T19:34:28.722Z,-0.10
2022-12-24T19:37:02.801Z,-0.10
2022-12-24T19:39:34.787Z,-0.10
2022-12-24T19:42:06.582Z,-0.10
2022-12-24T19:44:38.459Z,-0.20
2022-12-24T19:47:10.262Z,-0.10
2022-12-24T19:49:42.178Z,-0.20
2022-12-24T19:52:16.507Z,-0.20
2022-12-24T19:54:48.365Z,-0.30
2022-12-24T19:57:20.169Z,-0.30
2022-12-24T19:59:52.069Z,-0.30
2022-12-24T20:02:24.210Z,-0.30
2022-12-24T20:04:56.340Z,-0.30
2022-12-24T20:07:28.322Z,-0.30
2022-12-24T20:10:00.185Z,-0.30
2022-12-24T20:12:32.061Z,-0.30
2022-12-24T20:15:06.551Z,-0.30
2022-12-24T20:17:38.344Z,-0.30
2022-12-24T20:20:10.243Z,-0.40
2022-12-24T20:22:42.009Z,-0.40
2022-12-24T20:25:13.844Z,-0.40
2022-12-24T20:27:45.609Z,-0.30
2022-12-24T20:30:17.588Z,-0.40
2022-12-24T20:32:53.523Z,-0.40
2022-12-24T20:35:25.450Z,-0.40
2022-12-24T20:37:57.226Z,-0.40
2022-12-24T20:40:29.062Z,-0.40
2022-12-24T20:43:00.834Z,-0.40
2022-12-24T20:45:35.020Z,-0.40
2022-12-24T20:48:06.822Z,-0.40
2022-12-24T20:50:40.417Z,-0.40
2022-12-24T20:53:12.169Z,-0.40
2022-12-24T20:55:46.305Z,-0.40
2022-12-24T20:58:18.281Z,-0.40
2022-12-24T21:00:52.568Z,-0.40
2022-12-24T21:03:25.439Z,-0.40
2022-12-24T21:05:57.272Z,-0.50
2022-12-24T21:08:31.567Z,-0.40
2022-12-24T21:11:21.846Z,-0.50
2022-12-24T21:13:53.738Z,-0.50
2022-12-24T21:16:25.642Z,-0.50
2022-12-24T21:18:57.443Z,-0.50
2022-12-24T21:21:29.526Z,-0.50
2022-12-24T21:24:02.013Z,-0.50
2022-12-24T21:26:34.292Z,-0.50
2022-12-24T21:29:08.169Z,-0.50
2022-12-24T21:31:39.996Z,-0.50
2022-12-24T21:34:11.773Z,-0.50
2022-12-24T21:36:43.713Z,-0.50
2022-12-24T21:39:15.839Z,-0.50
2022-12-24T21:41:47.786Z,-0.60
2022-12-24T21:44:19.671Z,-0.60
2022-12-24T21:46:51.466Z,-0.60
2022-12-24T21:49:41.951Z,-0.60
2022-12-24T21:52:13.778Z,-0.60
2022-12-24T21:54:45.611Z,-0.60
2022-12-24T21:57:35.732Z,-0.70
2022-12-24T22:00:26.985Z,-0.70
2022-12-24T22:03:08.075Z,-0.80
2022-12-24T22:05:40.070Z,-0.80
2022-12-24T22:08:30.676Z,-0.80
2022-12-24T22:11:30.109Z,-0.80
2022-12-24T22:14:01.943Z,-0.80
2022-12-24T22:16:33.741Z,-0.80
2022-12-24T22:19:05.555Z,-0.80
2022-12-24T22:21:37.510Z,-0.80
2022-12-24T22:24:11.992Z,-0.80
2022-12-24T22:26:44.677Z,-0.80
2022-12-24T22:29:16.493Z,-0.80
2022-12-24T22:31:48.338Z,-0.80
2022-12-24T22:34:20.153Z,-0.80
2022-12-24T22:36:54.103Z,-0.70
2022-12-24T22:39:25.933Z,-0.70
2022-12-24T22:42:03.065Z,-0.70
2022-12-24T22:44:37.200Z,-0.70
2022-12-24T22:47:08.987Z,-0.70
2022-12-24T22:49:43.255Z,-0.70
2022-12-24T22:52:15.064Z,-0.70
2022-12-24T22:54:49.360Z,-0.70
2022-12-24T22:57:21.198Z,-0.70
2022-12-24T22:59:53.239Z,-0.70
2022-12-24T23:02:28.806Z,-0.70
2022-12-24T23:05:00.945Z,-0.70
2022-12-24T23:07:35.051Z,-0.70
2022-12-24T23:10:07.354Z,-0.70
2022-12-24T23:12:57.610Z,-0.60
2022-12-24T23:15:29.492Z,-0.60
2022-12-24T23:18:03.659Z,-0.60
2022-12-24T23:20:47.498Z,-0.60
2022-12-24T23:23:19.360Z,-0.60
2022-12-24T23:25:51.156Z,-0.70
2022-12-24T23:28:22.909Z,-0.60
2022-12-24T23:31:00.849Z,-0.60
2022-12-24T23:33:33.013Z,-0.60
2022-12-24T23:36:07.380Z,-0.60
2022-12-24T23:38:39.245Z,-0.60
2022-12-24T23:41:11.257Z,-0.60
2022-12-24T23:43:43.030Z,-0.60
2022-12-24T23:46:15.857Z,-0.60
2022-12-24T23:48:48.239Z,-0.60
2022-12-24T23:51:23.674Z,-0.60
2022-12-24T23:53:56.100Z,-0.60
2022-12-24T23:56:27.996Z,-0.60
2022-12-24T23:59:04.125Z,-0.60
